createdAt,value
2024-02-11T00:00:42.486Z,3.80
2024-02-11T00:03:09.823Z,3.80
2024-02-11T00:05:36.910Z,3.80
2024-02-11T00:08:04.008Z,3.70
2024-02-11T00:10:31.168Z,3.80
2024-02-11T00:12:58.800Z,3.80
2024-02-11T00:15:26.959Z,3.80
2024-02-11T00:17:54.066Z,3.80
2024-02-11T00:20:21.246Z,3.80
2024-02-11T00:22:50.435Z,3.80
2024-02-11T00:25:18.452Z,3.90
2024-02-11T00:27:51.766Z,3.90
2024-02-11T00:30:18.985Z,3.80
2024-02-11T00:32:47.332Z,3.80
2024-02-11T00:35:16.981Z,3.80
2024-02-11T00:37:44.198Z,3.80
2024-02-11T00:40:12.473Z,3.80
2024-02-11T00:42:39.443Z,3.80
2024-02-11T00:45:07.607Z,3.80
2024-02-11T00:47:37.429Z,3.80
2024-02-11T00:50:05.189Z,3.80
2024-02-11T00:52:32.371Z,3.80
2024-02-11T00:55:00.146Z,3.80
2024-02-11T00:57:27.130Z,3.80
2024-02-11T00:59:54.236Z,3.80
2024-02-11T01:02:21.258Z,3.80
2024-02-11T01:04:48.335Z,3.70
2024-02-11T01:07:18.206Z,3.80
2024-02-11T01:09:45.182Z,3.80
2024-02-11T01:12:13.285Z,3.80
2024-02-11T01:14:40.315Z,3.80
2024-02-11T01:17:07.386Z,3.80
2024-02-11T01:19:34.369Z,3.80
2024-02-11T01:22:02.246Z,3.80
2024-02-11T01:24:29.284Z,3.80
2024-02-11T01:26:58.208Z,3.70
2024-02-11T01:29:25.205Z,3.70
2024-02-11T01:31:52.988Z,3.60
2024-02-11T01:34:20.487Z,3.60
2024-02-11T01:36:47.639Z,3.60
2024-02-11T01:39:17.378Z,3.60
2024-02-11T01:41:44.430Z,3.60
2024-02-11T01:44:14.193Z,3.60
2024-02-11T01:46:41.717Z,3.60
2024-02-11T01:49:12.364Z,3.60
2024-02-11T01:51:44.218Z,3.60
2024-02-11T01:54:15.686Z,3.60
2024-02-11T01:56:43.604Z,3.60
2024-02-11T01:59:11.408Z,3.70
2024-02-11T02:01:38.466Z,3.60
2024-02-11T02:04:05.656Z,3.70
2024-02-11T02:06:34.529Z,3.70
2024-02-11T02:09:01.977Z,3.70
2024-02-11T02:11:30.157Z,3.70
2024-02-11T02:13:57.325Z,3.70
2024-02-11T02:16:24.354Z,3.70
2024-02-11T02:18:53.362Z,3.70
2024-02-11T02:21:20.614Z,3.70
2024-02-11T02:23:48.970Z,3.70
2024-02-11T02:26:16.587Z,3.70
2024-02-11T02:28:43.729Z,3.60
2024-02-11T02:31:11.742Z,3.70
2024-02-11T02:33:39.327Z,3.60
2024-02-11T02:36:06.908Z,3.60
2024-02-11T02:38:34.691Z,3.60
2024-02-11T02:41:02.244Z,3.60
2024-02-11T02:43:29.784Z,3.60
2024-02-11T02:45:56.730Z,3.50
2024-02-11T02:48:24.158Z,3.50
2024-02-11T02:50:51.240Z,3.50
2024-02-11T02:53:18.322Z,3.50
2024-02-11T02:55:45.550Z,3.50
2024-02-11T02:58:16.298Z,3.50
2024-02-11T03:00:43.781Z,3.50
2024-02-11T03:03:11.359Z,3.50
2024-02-11T03:05:43.093Z,3.50
2024-02-11T03:08:10.686Z,3.50
2024-02-11T03:10:38.895Z,3.50
2024-02-11T03:13:06.277Z,3.50
2024-02-11T03:15:34.180Z,3.50
2024-02-11T03:18:03.401Z,3.60
2024-02-11T03:20:30.735Z,3.60
2024-02-11T03:22:58.144Z,3.60
2024-02-11T03:25:25.303Z,3.60
2024-02-11T03:27:56.010Z,3.60
2024-02-11T03:30:23.687Z,3.60
2024-02-11T03:32:51.375Z,3.50
2024-02-11T03:35:18.796Z,3.50
2024-02-11T03:37:46.164Z,3.50
2024-02-11T03:40:17.423Z,3.50
2024-02-11T03:42:45.604Z,3.50
2024-02-11T03:45:13.438Z,3.50
2024-02-11T03:47:41.381Z,3.50
2024-02-11T03:50:15.414Z,3.40
2024-02-11T03:52:43.269Z,3.40
2024-02-11T03:55:12.304Z,3.40
2024-02-11T03:57:40.007Z,3.40
2024-02-11T04:00:27.226Z,3.40
2024-02-11T04:02:55.277Z,3.40
2024-02-11T04:05:26.489Z,3.40
2024-02-11T04:07:55.115Z,3.40
2024-02-11T04:10:30.455Z,3.40
2024-02-11T04:13:00.484Z,3.40
2024-02-11T04:15:28.729Z,3.40
2024-02-11T04:17:58.512Z,3.40
2024-02-11T04:20:28.425Z,3.30
2024-02-11T04:22:58.734Z,3.30
2024-02-11T04:25:36.485Z,3.30
2024-02-11T04:28:08.909Z,3.30
2024-02-11T04:30:38.410Z,3.20
2024-02-11T04:33:06.649Z,3.20
2024-02-11T04:35:35.056Z,3.30
2024-02-11T04:38:09.571Z,3.30
2024-02-11T04:40:36.967Z,3.30
2024-02-11T04:43:04.055Z,3.30
2024-02-11T04:45:31.091Z,3.30
2024-02-11T04:48:00.647Z,3.30
2024-02-11T04:50:29.405Z,3.40
2024-02-11T04:53:00.296Z,3.40
2024-02-11T04:55:40.802Z,3.40
2024-02-11T04:58:15.522Z,3.50
2024-02-11T05:00:43.694Z,3.50
2024-02-11T05:03:12.731Z,3.50
2024-02-11T05:05:42.950Z,3.40
2024-02-11T05:08:11.636Z,3.40
2024-02-11T05:10:40.802Z,3.40
2024-02-11T05:13:09.618Z,3.40
2024-02-11T05:15:44.242Z,3.30
2024-02-11T05:18:21.008Z,3.30
2024-02-11T05:20:49.023Z,3.30
2024-02-11T05:23:17.391Z,3.30
2024-02-11T05:25:45.432Z,3.20
2024-02-11T05:28:17.160Z,3.30
2024-02-11T05:30:49.985Z,3.20
2024-02-11T05:33:20.257Z,3.10
2024-02-11T05:35:51.213Z,3.10
2024-02-11T05:38:21.922Z,3.00
2024-02-11T05:40:52.593Z,3.00
2024-02-11T05:43:22.809Z,2.90
2024-02-11T05:45:50.334Z,2.90
2024-02-11T05:48:19.769Z,2.80
2024-02-11T05:50:47.699Z,2.80
2024-02-11T05:53:15.619Z,2.90
2024-02-11T05:55:42.763Z,2.90
2024-02-11T05:58:09.918Z,2.90
2024-02-11T06:00:44.914Z,2.90
2024-02-11T06:03:12.601Z,3.00
2024-02-11T06:05:43.243Z,3.00
2024-02-11T06:08:12.005Z,2.90
2024-02-11T06:10:41.167Z,2.90
2024-02-11T06:13:11.992Z,3.00
2024-02-11T06:15:42.012Z,3.00
2024-02-11T06:18:11.255Z,3.00
2024-02-11T06:20:40.722Z,3.10
2024-02-11T06:23:08.435Z,3.10
2024-02-11T06:25:35.524Z,3.10
2024-02-11T06:28:03.298Z,3.10
2024-02-11T06:30:30.788Z,3.10
2024-02-11T06:32:58.256Z,3.10
2024-02-11T06:35:26.234Z,3.10
2024-02-11T06:37:53.871Z,3.10
2024-02-11T06:40:27.267Z,3.10
2024-02-11T06:42:56.161Z,3.20
2024-02-11T06:45:24.420Z,3.20
2024-02-11T06:47:52.398Z,3.20
2024-02-11T06:50:21.771Z,3.20
2024-02-11T06:52:51.061Z,3.20
2024-02-11T06:55:20.603Z,3.20
2024-02-11T06:57:48.540Z,3.20
2024-02-11T07:00:17.675Z,3.10
2024-02-11T07:02:47.034Z,3.10
2024-02-11T07:05:17.869Z,3.10
2024-02-11T07:07:46.599Z,3.10
2024-02-11T07:10:15.796Z,3.20
2024-02-11T07:12:43.992Z,3.20
2024-02-11T07:15:12.769Z,3.20
2024-02-11T07:17:42.676Z,3.20
2024-02-11T07:20:13.324Z,3.20
2024-02-11T07:22:43.777Z,3.10
2024-02-11T07:25:11.119Z,3.20
2024-02-11T07:27:38.096Z,3.10
2024-02-11T07:30:05.614Z,3.10
2024-02-11T07:32:33.410Z,3.10
2024-02-11T07:35:00.877Z,3.10
2024-02-11T07:37:28.928Z,3.10
2024-02-11T07:39:56.103Z,3.20
2024-02-11T07:42:27.560Z,3.10
2024-02-11T07:44:55.496Z,3.10
2024-02-11T07:47:22.650Z,3.10
2024-02-11T07:49:50.875Z,3.00
2024-02-11T07:52:20.414Z,3.00
2024-02-11T07:54:47.734Z,3.10
2024-02-11T07:57:15.218Z,3.00
2024-02-11T07:59:43.585Z,3.00
2024-02-11T08:02:10.646Z,3.10
2024-02-11T08:04:37.741Z,3.10
2024-02-11T08:07:05.000Z,3.20
2024-02-11T08:09:32.014Z,3.20
2024-02-11T08:12:00.312Z,3.30
2024-02-11T08:14:27.727Z,3.30
2024-02-11T08:16:54.890Z,3.30
2024-02-11T08:19:21.946Z,3.40
2024-02-11T08:21:49.014Z,3.30
2024-02-11T08:24:17.564Z,3.40
2024-02-11T08:26:45.083Z,3.40
2024-02-11T08:29:12.084Z,3.50
2024-02-11T08:31:39.229Z,3.50
2024-02-11T08:34:06.396Z,3.50
2024-02-11T08:36:33.468Z,3.60
2024-02-11T08:39:03.055Z,3.60
2024-02-11T08:41:30.380Z,3.60
2024-02-11T08:43:57.519Z,3.60
2024-02-11T08:46:24.927Z,3.60
2024-02-11T08:48:52.187Z,3.60
2024-02-11T08:51:22.299Z,3.60
2024-02-11T08:53:51.783Z,3.60
2024-02-11T08:56:19.204Z,3.60
2024-02-11T08:58:46.423Z,3.60
2024-02-11T09:01:13.502Z,3.50
2024-02-11T09:03:40.566Z,3.50
2024-02-11T09:06:07.748Z,3.50
2024-02-11T09:08:34.871Z,3.50
2024-02-11T09:11:07.437Z,3.40
2024-02-11T09:13:38.706Z,3.40
2024-02-11T09:16:06.792Z,3.50
2024-02-11T09:18:34.161Z,3.50
2024-02-11T09:21:01.380Z,3.50
2024-02-11T09:23:28.425Z,3.50
2024-02-11T09:25:56.509Z,3.50
2024-02-11T09:28:24.440Z,3.50
2024-02-11T09:30:51.633Z,3.50
2024-02-11T09:33:18.871Z,3.50
2024-02-11T09:35:47.643Z,3.60
2024-02-11T09:38:16.645Z,3.50
2024-02-11T09:40:45.595Z,3.60
2024-02-11T09:43:13.929Z,3.60
2024-02-11T09:45:43.172Z,3.70
2024-02-11T09:48:10.458Z,3.70
2024-02-11T09:50:39.858Z,3.70
2024-02-11T09:53:14.628Z,3.90
2024-02-11T09:55:44.185Z,3.90
2024-02-11T09:58:11.157Z,3.90
2024-02-11T10:00:38.175Z,4.00
2024-02-11T10:03:13.279Z,4.00
2024-02-11T10:05:42.968Z,4.00
2024-02-11T10:08:17.902Z,4.00
2024-02-11T10:10:49.022Z,4.10
2024-02-11T10:13:21.158Z,4.10
2024-02-11T10:15:49.356Z,4.10
2024-02-11T10:18:19.125Z,4.10
2024-02-11T10:20:51.331Z,4.00
2024-02-11T10:23:19.720Z,4.00
2024-02-11T10:25:48.933Z,4.00
2024-02-11T10:28:16.199Z,4.00
2024-02-11T10:30:43.427Z,4.10
2024-02-11T10:33:11.856Z,4.10
2024-02-11T10:35:39.851Z,4.10
2024-02-11T10:38:11.376Z,4.20
2024-02-11T10:40:39.606Z,4.20
2024-02-11T10:43:07.129Z,4.20
2024-02-11T10:45:36.537Z,4.40
2024-02-11T10:48:05.627Z,4.50
2024-02-11T10:50:34.514Z,4.50
2024-02-11T10:53:05.251Z,4.50
2024-02-11T10:55:42.276Z,4.50
2024-02-11T10:58:12.265Z,4.60
2024-02-11T11:00:40.692Z,4.70
2024-02-11T11:03:12.422Z,4.70
2024-02-11T11:05:44.582Z,4.80
2024-02-11T11:08:14.144Z,4.70
2024-02-11T11:10:41.506Z,4.80
2024-02-11T11:26:02.434Z,4.70
2024-02-11T11:28:33.692Z,5.00
2024-02-11T11:31:02.950Z,5.00
2024-02-11T11:33:36.333Z,5.00
2024-02-11T11:36:05.393Z,5.10
2024-02-11T11:38:33.175Z,5.10
2024-02-11T11:41:01.303Z,5.10
2024-02-11T11:43:30.510Z,5.00
2024-02-11T11:45:59.367Z,5.10
2024-02-11T11:48:28.888Z,5.10
2024-02-11T11:51:01.407Z,5.00
2024-02-11T11:53:30.455Z,5.00
2024-02-11T11:56:02.682Z,5.00
2024-02-11T11:58:32.044Z,5.00
2024-02-11T12:01:06.180Z,5.00
2024-02-11T12:03:35.658Z,5.10
2024-02-11T12:06:02.869Z,5.00
2024-02-11T12:08:30.731Z,5.10
2024-02-11T12:11:07.925Z,5.10
2024-02-11T12:13:36.934Z,5.00
2024-02-11T12:16:16.551Z,5.10
2024-02-11T12:18:45.368Z,5.10
2024-02-11T12:21:15.075Z,5.10
2024-02-11T12:23:42.426Z,5.10
2024-02-11T12:26:10.205Z,5.10
2024-02-11T12:28:39.135Z,5.10
2024-02-11T12:31:06.259Z,5.10
2024-02-11T12:33:38.468Z,5.20
2024-02-11T12:36:12.862Z,5.20
2024-02-11T12:38:46.012Z,5.20
2024-02-11T12:41:17.613Z,5.20
2024-02-11T12:43:56.145Z,5.20
2024-02-11T12:46:24.695Z,5.20
2024-02-11T12:48:52.147Z,5.20
2024-02-11T12:51:21.391Z,5.20
2024-02-11T12:53:52.211Z,5.20
2024-02-11T12:56:20.789Z,5.30
2024-02-11T12:58:50.567Z,5.30
2024-02-11T13:01:18.368Z,5.30
2024-02-11T13:03:47.906Z,5.30
2024-02-11T13:06:17.162Z,5.40
2024-02-11T13:08:45.018Z,5.40
2024-02-11T13:11:13.862Z,5.40
2024-02-11T13:13:44.159Z,5.40
2024-02-11T13:16:12.150Z,5.50
2024-02-11T13:18:40.462Z,5.50
2024-02-11T13:21:08.334Z,5.50
2024-02-11T13:23:37.503Z,5.50
2024-02-11T13:26:05.478Z,5.50
2024-02-11T13:28:33.887Z,5.50
2024-02-11T13:31:10.688Z,5.60
2024-02-11T13:33:48.034Z,5.60
2024-02-11T13:36:15.563Z,5.60
2024-02-11T13:38:42.813Z,5.80
2024-02-11T13:41:10.273Z,5.70
2024-02-11T13:43:38.850Z,5.60
2024-02-11T13:46:06.371Z,5.50
2024-02-11T13:48:33.539Z,5.60
2024-02-11T13:51:00.697Z,5.60
2024-02-11T13:53:28.022Z,5.60
2024-02-11T13:55:55.301Z,5.70
2024-02-11T13:58:22.410Z,5.60
2024-02-11T14:00:49.567Z,5.70
2024-02-11T14:03:16.759Z,5.70
2024-02-11T14:05:43.966Z,5.70
2024-02-11T14:08:13.265Z,5.70
2024-02-11T14:10:41.401Z,5.70
2024-02-11T14:13:08.926Z,5.80
2024-02-11T14:15:36.934Z,5.90
2024-02-11T14:18:08.532Z,5.90
2024-02-11T14:20:36.292Z,5.90
2024-02-11T14:23:03.582Z,5.90
2024-02-11T14:25:31.415Z,5.90
2024-02-11T14:27:58.569Z,5.90
2024-02-11T14:30:28.097Z,5.80
2024-02-11T14:32:57.117Z,5.80
2024-02-11T14:35:26.161Z,5.80
2024-02-11T14:37:53.800Z,5.70
2024-02-11T14:40:21.860Z,5.60
2024-02-11T14:42:48.907Z,5.60
2024-02-11T14:45:16.702Z,5.60
2024-02-11T14:47:45.219Z,5.60
2024-02-11T14:50:12.772Z,5.60
2024-02-11T14:52:39.922Z,5.50
2024-02-11T14:55:07.973Z,5.60
2024-02-11T14:57:36.687Z,5.60
2024-02-11T15:00:10.976Z,5.60
2024-02-11T15:02:42.411Z,5.70
2024-02-11T15:05:16.146Z,5.60
2024-02-11T15:07:44.219Z,5.60
2024-02-11T15:10:14.530Z,5.60
2024-02-11T15:12:41.681Z,5.50
2024-02-11T15:15:08.919Z,5.50
2024-02-11T15:17:35.933Z,5.50
2024-02-11T15:20:03.254Z,5.50
2024-02-11T15:22:30.695Z,5.50
2024-02-11T15:24:57.682Z,5.50
2024-02-11T15:27:26.139Z,5.50
2024-02-11T15:29:53.131Z,5.50
2024-02-11T15:32:20.141Z,5.60
2024-02-11T15:34:47.227Z,5.50
2024-02-11T15:37:14.197Z,5.50
2024-02-11T15:39:41.325Z,5.60
2024-02-11T15:42:10.223Z,5.60
2024-02-11T15:44:39.272Z,5.50
2024-02-11T15:47:12.256Z,5.50
2024-02-11T15:49:41.006Z,5.40
2024-02-11T15:52:11.286Z,5.50
2024-02-11T15:54:43.050Z,5.40
2024-02-11T15:57:13.710Z,5.50
2024-02-11T15:59:44.627Z,5.40
2024-02-11T16:02:12.852Z,5.40
2024-02-11T16:04:40.008Z,5.40
2024-02-11T16:07:07.548Z,5.50
2024-02-11T16:09:35.129Z,5.50
2024-02-11T16:12:02.138Z,5.50
2024-02-11T16:14:29.272Z,5.40
2024-02-11T16:16:56.560Z,5.40
2024-02-11T16:19:26.088Z,5.40
2024-02-11T16:21:54.816Z,5.30
2024-02-11T16:24:21.980Z,5.30
2024-02-11T16:26:49.933Z,5.20
2024-02-11T16:29:19.273Z,5.20
2024-02-11T16:31:47.047Z,5.20
2024-02-11T16:34:14.489Z,5.20
2024-02-11T16:36:42.628Z,5.20
2024-02-11T16:39:10.132Z,5.10
2024-02-11T16:41:39.387Z,5.20
2024-02-11T16:44:08.914Z,5.20
2024-02-11T16:46:36.782Z,5.30
2024-02-11T16:49:05.837Z,5.30
2024-02-11T16:51:33.459Z,5.30
2024-02-11T16:54:00.759Z,5.30
2024-02-11T16:56:28.718Z,5.20
2024-02-11T16:58:56.039Z,5.20
2024-02-11T17:01:23.165Z,5.20
2024-02-11T17:03:51.153Z,5.20
2024-02-11T17:06:18.694Z,5.20
2024-02-11T17:08:45.847Z,5.10
2024-02-11T17:11:14.941Z,5.00
2024-02-11T17:13:42.195Z,5.00
2024-02-11T17:16:09.138Z,4.90
2024-02-11T17:18:36.358Z,4.90
2024-02-11T17:21:11.362Z,4.80
2024-02-11T17:23:41.491Z,4.90
2024-02-11T17:26:09.581Z,4.90
2024-02-11T17:28:37.323Z,5.00
2024-02-11T17:31:05.053Z,4.90
2024-02-11T17:33:32.349Z,4.90
2024-02-11T17:36:01.440Z,4.90
2024-02-11T17:38:29.313Z,4.80
2024-02-11T17:40:56.734Z,4.80
2024-02-11T17:43:24.060Z,4.80
2024-02-11T17:45:51.428Z,4.90
2024-02-11T17:48:18.551Z,4.90
2024-02-11T17:50:47.189Z,4.90
2024-02-11T17:53:15.402Z,4.90
2024-02-11T17:55:43.838Z,4.90
2024-02-11T17:58:12.422Z,5.00
2024-02-11T18:00:49.954Z,4.90
2024-02-11T18:03:22.384Z,4.90
2024-02-11T18:05:49.566Z,4.80
2024-02-11T18:08:17.073Z,4.80
2024-02-11T18:10:44.445Z,4.70
2024-02-11T18:13:11.606Z,4.70
2024-02-11T18:15:40.222Z,4.60
2024-02-11T18:18:08.121Z,4.60
2024-02-11T18:20:35.443Z,4.50
2024-02-11T18:23:03.585Z,4.50
2024-02-11T18:25:47.382Z,4.60
2024-02-11T18:28:18.201Z,4.60
2024-02-11T18:30:45.560Z,4.70
2024-02-11T18:33:14.759Z,4.70
2024-02-11T18:35:42.180Z,4.60
2024-02-11T18:38:09.460Z,4.60
2024-02-11T18:40:36.515Z,4.60
2024-02-11T18:43:03.447Z,4.60
2024-02-11T18:45:30.546Z,4.60
2024-02-11T18:47:57.586Z,4.50
2024-02-11T18:50:24.830Z,4.50
2024-02-11T18:52:52.356Z,4.50
2024-02-11T18:55:19.667Z,4.40
2024-02-11T18:57:46.687Z,4.40
2024-02-11T19:00:19.992Z,4.40
2024-02-11T19:02:47.254Z,4.40
2024-02-11T19:05:16.990Z,4.50
2024-02-11T19:07:44.817Z,4.50
2024-02-11T19:10:19.902Z,4.40
2024-02-11T19:12:48.312Z,4.40
2024-02-11T19:15:15.405Z,4.50
2024-02-11T19:17:45.196Z,4.50
2024-02-11T19:20:15.246Z,4.50
2024-02-11T19:22:42.231Z,4.50
2024-02-11T19:25:09.296Z,4.50
2024-02-11T19:27:39.175Z,4.50
2024-02-11T19:30:07.782Z,4.40
2024-02-11T19:32:35.149Z,4.40
2024-02-11T19:35:04.994Z,4.40
2024-02-11T19:37:32.216Z,4.40
2024-02-11T19:39:59.264Z,4.50
2024-02-11T19:42:26.324Z,4.50
2024-02-11T19:44:53.755Z,4.50
2024-02-11T19:47:21.638Z,4.40
2024-02-11T19:49:49.785Z,4.40
2024-02-11T19:52:16.869Z,4.40
2024-02-11T19:54:43.926Z,4.40
2024-02-11T19:57:12.344Z,4.40
2024-02-11T19:59:40.548Z,4.40
2024-02-11T20:02:08.155Z,4.40
2024-02-11T20:04:37.100Z,4.40
2024-02-11T20:07:04.154Z,4.40
2024-02-11T20:09:36.248Z,4.40
2024-02-11T20:12:03.424Z,4.40
2024-02-11T20:14:30.705Z,4.40
2024-02-11T20:16:57.737Z,4.40
2024-02-11T20:19:27.517Z,4.30
2024-02-11T20:21:55.170Z,4.30
2024-02-11T20:24:22.571Z,4.30
2024-02-11T20:26:49.616Z,4.30
2024-02-11T20:29:16.628Z,4.10
2024-02-11T20:31:47.606Z,4.20
2024-02-11T20:34:14.747Z,4.10
2024-02-11T20:36:41.753Z,4.10
2024-02-11T20:39:08.726Z,4.10
2024-02-11T20:41:35.749Z,4.10
2024-02-11T20:44:02.874Z,4.20
2024-02-11T20:46:29.826Z,4.20
2024-02-11T20:49:00.105Z,4.10
2024-02-11T20:51:32.189Z,4.10
2024-02-11T20:54:00.017Z,4.00
2024-02-11T20:56:30.869Z,4.00
2024-02-11T20:58:58.066Z,4.00
2024-02-11T21:01:25.310Z,4.00
2024-02-11T21:03:57.286Z,4.00
2024-02-11T21:06:25.863Z,4.00
2024-02-11T21:08:53.196Z,4.00
2024-02-11T21:11:20.605Z,4.00
2024-02-11T21:13:48.643Z,4.00
2024-02-11T21:16:16.859Z,4.00
2024-02-11T21:18:47.449Z,4.00
2024-02-11T21:21:15.128Z,4.00
2024-02-11T21:23:45.438Z,4.00
2024-02-11T21:26:18.288Z,4.00
2024-02-11T21:28:48.994Z,4.00
2024-02-11T21:31:21.985Z,4.00
2024-02-11T21:33:51.818Z,4.00
2024-02-11T21:36:19.435Z,4.10
2024-02-11T21:38:46.543Z,4.00
2024-02-11T21:41:19.361Z,4.00
2024-02-11T21:43:47.735Z,4.00
2024-02-11T21:46:17.101Z,4.00
2024-02-11T21:48:44.573Z,4.00
2024-02-11T21:51:12.118Z,4.00
2024-02-11T21:53:41.148Z,4.00
2024-02-11T21:56:09.770Z,4.10
2024-02-11T21:58:37.244Z,4.10
2024-02-11T22:01:04.505Z,4.10
2024-02-11T22:03:31.552Z,4.10
2024-02-11T22:05:58.699Z,4.10
2024-02-11T22:08:26.581Z,4.20
2024-02-11T22:10:53.805Z,4.10
2024-02-11T22:13:20.924Z,4.10
2024-02-11T22:15:48.768Z,4.10
2024-02-11T22:18:17.131Z,4.10
2024-02-11T22:20:44.783Z,4.00
2024-02-11T22:23:12.744Z,4.10
2024-02-11T22:25:39.905Z,4.10
2024-02-11T22:28:07.057Z,4.10
2024-02-11T22:30:34.060Z,4.10
2024-02-11T22:33:01.228Z,4.10
2024-02-11T22:35:28.639Z,4.20
2024-02-11T22:37:55.806Z,4.20
2024-02-11T22:40:23.119Z,4.20
2024-02-11T22:42:50.106Z,4.20
2024-02-11T22:45:18.521Z,4.10
2024-02-11T22:47:46.222Z,4.10
2024-02-11T22:50:15.630Z,4.10
2024-02-11T22:52:42.683Z,4.10
2024-02-11T22:55:12.138Z,4.10
2024-02-11T22:57:39.470Z,4.20
2024-02-11T23:00:26.404Z,4.10
2024-02-11T23:02:54.554Z,4.10
2024-02-11T23:05:23.278Z,4.00
2024-02-11T23:07:50.392Z,3.90
2024-02-11T23:10:17.726Z,3.90
2024-02-11T23:12:47.734Z,3.80
2024-02-11T23:15:14.840Z,3.90
2024-02-11T23:17:42.657Z,3.70
2024-02-11T23:20:16.588Z,3.70
2024-02-11T23:22:45.264Z,3.70
2024-02-11T23:25:12.655Z,3.70
2024-02-11T23:27:39.852Z,3.70
2024-02-11T23:30:09.296Z,3.60
2024-02-11T23:32:37.633Z,3.50
2024-02-11T23:35:05.488Z,3.40
2024-02-11T23:37:32.968Z,3.30
2024-02-11T23:40:00.869Z,3.30
2024-02-11T23:42:28.412Z,3.30
2024-02-11T23:44:55.960Z,3.30
2024-02-11T23:47:23.942Z,3.30
2024-02-11T23:49:50.955Z,3.20
2024-02-11T23:52:18.039Z,3.20
2024-02-11T23:54:45.705Z,3.30
2024-02-11T23:57:13.704Z,3.10
2024-02-11T23:59:43.279Z,3.00
